Terminal Aerodrome Forecast
Issued by NWS Sterling, VA

Current Version | Previous Version | Graphics & Text | Print | Product List | Glossary On
Versions: 1 2 3 4 5 6 7 8 9 10 11 12 13 14 15 16 17 18 19 20 21 22 23 24 25 26 27 28 29
982
FTUS41 KLWX 030524
TAFIAD
TAF
KIAD 030524Z 0306/0412 15008KT P6SM OVC060
     FM030800 15007KT P6SM OVC030
     FM031100 16007KT 5SM -DZ BR OVC009
     FM031300 16010KT 2SM -RADZ BR OVC008 WS020/18040KT
     FM031400 16011KT 2SM -SHRA BR OVC008 WS020/19045KT
     FM031600 18013G23KT 3SM -SHRA BR OVC008
     FM032300 20010KT 3SM -SHRA BR OVC030
     FM040200 28005KT P6SM BKN130=

USA.gov is the U.S. government's official web portal to all federal, state and local government web resources and services.